Donald, Georgia
Current Conditions -  °F | °C
As of 6:58 PM on Friday 31 Oct 2014 (Local Time) from KLHW Reporting Station
Clear Clear  
Wind Chill: 62°   Ceiling: Unl
Heat Index: 62°   Visibility: 10mi
Dew Point: 49°   Wind: 0mph
Humidity: 63%   Direction: NA
Pressure: 29.79"   Gusts: NA
Location:  31.755°N, 81.7451°W
Report Text: KLHW 312258Z AUTO 00000KT 10SM CLR 17/10 A2979 RMK AO2 SLP091 T01670097
Loading
Personal Weather Stations






























Interactive Weather Map
Tropical Storm Tracking
New forecast layout! Learn more

10-Day Weather Forecast

Advertisements
Track Severe Weather on mobile